createdAt,value
2023-01-24T00:00:53.487Z,1.81
2023-01-24T00:03:22.201Z,1.81
2023-01-24T00:05:50.060Z,1.83
2023-01-24T00:08:20.385Z,1.83
2023-01-24T00:10:48.708Z,1.72
2023-01-24T00:13:17.399Z,1.70
2023-01-24T00:15:44.698Z,1.72
2023-01-24T00:18:12.080Z,1.65
2023-01-24T00:20:39.413Z,1.62
2023-01-24T00:23:06.454Z,1.59
2023-01-24T00:25:33.533Z,1.59
2023-01-24T00:28:00.591Z,1.55
2023-01-24T00:30:27.690Z,1.49
2023-01-24T00:32:54.836Z,1.47
2023-01-24T00:35:22.498Z,1.43
2023-01-24T00:37:50.278Z,1.41
2023-01-24T00:40:17.508Z,1.43
2023-01-24T00:42:44.825Z,1.47
2023-01-24T00:45:12.129Z,1.48
2023-01-24T00:47:39.168Z,1.47
2023-01-24T00:50:08.597Z,1.50
2023-01-24T00:52:37.098Z,1.55
2023-01-24T00:55:04.325Z,1.55
2023-01-24T00:57:31.455Z,1.58
2023-01-24T00:59:58.686Z,1.62
2023-01-24T01:02:26.666Z,1.67
2023-01-24T01:04:53.779Z,1.62
2023-01-24T01:07:21.792Z,1.60
2023-01-24T01:09:48.945Z,1.60
2023-01-24T01:12:16.147Z,1.60
2023-01-24T01:14:43.179Z,1.58
2023-01-24T01:17:10.285Z,1.59
2023-01-24T01:19:37.288Z,1.62
2023-01-24T01:22:04.263Z,1.61
2023-01-24T01:24:31.364Z,1.63
2023-01-24T01:26:58.421Z,1.65
2023-01-24T01:29:25.438Z,1.66
2023-01-24T01:31:52.644Z,1.69
2023-01-24T01:34:19.873Z,1.67
2023-01-24T01:36:46.973Z,1.67
2023-01-24T01:39:15.035Z,1.65
2023-01-24T01:41:42.288Z,1.62
2023-01-24T01:44:49.273Z,1.61
2023-01-24T01:47:31.428Z,1.60
2023-01-24T01:50:06.630Z,1.60
2023-01-24T01:52:40.429Z,1.60
2023-01-24T01:55:09.414Z,1.61
2023-01-24T01:57:37.443Z,1.61
2023-01-24T02:00:13.285Z,1.64
2023-01-24T02:02:44.432Z,1.66
2023-01-24T02:05:14.793Z,1.60
2023-01-24T02:07:47.899Z,1.61
2023-01-24T02:10:18.829Z,1.60
2023-01-24T02:12:48.241Z,1.58
2023-01-24T02:15:37.579Z,1.57
2023-01-24T02:18:06.091Z,1.58
2023-01-24T02:20:47.380Z,1.59
2023-01-24T02:23:20.151Z,1.56
2023-01-24T02:26:09.614Z,1.57
2023-01-24T02:28:38.346Z,1.55
2023-01-24T02:31:06.086Z,1.56
2023-01-24T02:33:35.161Z,1.54
2023-01-24T02:36:12.524Z,1.55
2023-01-24T02:38:41.396Z,1.58
2023-01-24T02:41:09.647Z,1.61
2023-01-24T02:43:43.792Z,1.64
2023-01-24T02:46:11.144Z,1.64
2023-01-24T02:48:38.445Z,1.62
2023-01-24T02:51:24.367Z,1.63
2023-01-24T02:53:51.606Z,1.63
2023-01-24T02:56:37.320Z,1.60
2023-01-24T02:59:04.605Z,1.63
2023-01-24T03:01:33.799Z,1.60
2023-01-24T03:04:01.263Z,1.54
2023-01-24T03:06:28.653Z,1.47
2023-01-24T03:08:55.782Z,1.43
2023-01-24T03:11:37.293Z,1.39
2023-01-24T03:14:22.729Z,1.34
2023-01-24T03:17:08.459Z,1.33
2023-01-24T03:19:54.249Z,1.35
2023-01-24T03:22:40.977Z,1.35
2023-01-24T03:25:27.255Z,1.37
2023-01-24T03:28:12.934Z,1.38
2023-01-24T03:30:58.488Z,1.38
2023-01-24T03:33:45.127Z,1.36
2023-01-24T03:36:20.756Z,1.32
2023-01-24T03:39:12.258Z,1.31
2023-01-24T03:41:39.266Z,1.27
2023-01-24T03:44:06.567Z,1.26
2023-01-24T03:46:33.586Z,1.29
2023-01-24T03:49:00.673Z,1.26
2023-01-24T03:51:51.151Z,1.21
2023-01-24T03:54:18.890Z,1.18
2023-01-24T03:56:55.343Z,1.15
2023-01-24T03:59:26.151Z,1.14
2023-01-24T04:01:53.367Z,1.14
2023-01-24T04:04:53.300Z,1.20
2023-01-24T04:07:27.034Z,1.19
2023-01-24T04:10:01.920Z,1.20
2023-01-24T04:12:33.521Z,1.23
2023-01-24T04:15:01.505Z,1.22
2023-01-24T04:17:29.071Z,1.22
2023-01-24T04:19:56.888Z,1.20
2023-01-24T04:22:25.450Z,1.20
2023-01-24T04:24:55.305Z,1.17
2023-01-24T04:27:25.067Z,1.15
2023-01-24T04:30:11.921Z,1.08
2023-01-24T04:32:44.750Z,1.05
2023-01-24T04:35:21.340Z,1.04
2023-01-24T04:37:51.482Z,1.04
2023-01-24T04:40:32.662Z,1.09
2023-01-24T04:42:59.829Z,1.13
2023-01-24T04:45:29.016Z,1.19
2023-01-24T04:47:59.517Z,1.21
2023-01-24T04:50:27.162Z,1.26
2023-01-24T04:52:54.932Z,1.29
2023-01-24T04:55:24.422Z,1.32
2023-01-24T04:57:52.943Z,1.29
2023-01-24T05:00:20.795Z,1.30
2023-01-24T05:02:54.236Z,1.30
2023-01-24T05:05:23.245Z,1.26
2023-01-24T05:07:51.180Z,1.28
2023-01-24T05:10:22.495Z,1.28
2023-01-24T05:12:49.541Z,1.27
2023-01-24T05:15:23.620Z,1.29
2023-01-24T05:17:51.572Z,1.29
2023-01-24T05:20:20.820Z,1.32
2023-01-24T05:22:50.051Z,1.29
2023-01-24T05:25:17.823Z,1.24
2023-01-24T05:27:45.478Z,1.24
2023-01-24T05:30:14.480Z,1.19
2023-01-24T05:32:41.608Z,1.17
2023-01-24T05:35:09.706Z,1.18
2023-01-24T05:37:41.029Z,1.19
2023-01-24T05:40:10.407Z,1.21
2023-01-24T05:42:42.261Z,1.18
2023-01-24T05:45:10.943Z,1.14
2023-01-24T05:47:38.097Z,1.07
2023-01-24T05:50:07.103Z,1.07
2023-01-24T05:52:34.175Z,1.05
2023-01-24T05:55:01.293Z,1.00
2023-01-24T05:57:38.362Z,1.00
2023-01-24T06:00:23.739Z,1.03
2023-01-24T06:03:23.320Z,1.03
2023-01-24T06:05:54.639Z,1.04
2023-01-24T06:08:22.606Z,1.10
2023-01-24T06:10:50.554Z,1.11
2023-01-24T06:13:20.418Z,1.14
2023-01-24T06:15:47.473Z,1.16
2023-01-24T06:18:18.115Z,1.19
2023-01-24T06:20:50.153Z,1.21
2023-01-24T06:23:25.548Z,1.19
2023-01-24T06:25:56.319Z,1.18
2023-01-24T06:28:25.665Z,1.19
2023-01-24T06:31:03.262Z,1.20
2023-01-24T06:34:01.069Z,1.20
2023-01-24T06:36:49.081Z,1.24
2023-01-24T06:39:17.357Z,1.30
2023-01-24T06:41:44.550Z,1.32
2023-01-24T06:44:12.951Z,1.32
2023-01-24T06:46:40.070Z,1.35
2023-01-24T06:49:07.319Z,1.34
2023-01-24T06:51:34.233Z,1.36
2023-01-24T06:54:04.164Z,1.39
2023-01-24T06:56:32.305Z,1.41
2023-01-24T06:58:59.311Z,1.43
2023-01-24T07:01:26.368Z,1.46
2023-01-24T07:03:53.452Z,1.48
2023-01-24T07:06:22.497Z,1.48
2023-01-24T07:08:50.024Z,1.50
2023-01-24T07:11:16.975Z,1.50
2023-01-24T07:13:43.891Z,1.46
2023-01-24T07:16:12.192Z,1.46
2023-01-24T07:18:41.102Z,1.49
2023-01-24T07:21:09.772Z,1.52
2023-01-24T07:23:38.479Z,1.56
2023-01-24T07:26:10.423Z,1.58
2023-01-24T07:28:37.481Z,1.63
2023-01-24T07:31:04.973Z,1.66
2023-01-24T07:33:32.248Z,1.69
2023-01-24T07:35:59.512Z,1.67
2023-01-24T07:38:26.759Z,1.61
2023-01-24T07:40:53.701Z,1.59
2023-01-24T07:43:21.462Z,1.58
2023-01-24T07:45:49.554Z,1.57
2023-01-24T07:48:18.020Z,1.57
2023-01-24T07:50:44.928Z,1.56
2023-01-24T07:53:11.809Z,1.57
2023-01-24T07:55:38.860Z,1.59
2023-01-24T07:58:05.914Z,1.58
2023-01-24T08:00:33.044Z,1.58
2023-01-24T08:03:00.103Z,1.61
2023-01-24T08:05:27.267Z,1.66
2023-01-24T08:07:55.615Z,1.69
2023-01-24T08:10:23.324Z,1.74
2023-01-24T08:12:52.099Z,1.80
2023-01-24T08:15:19.534Z,1.78
2023-01-24T08:17:46.490Z,1.77
2023-01-24T08:20:14.086Z,1.77
2023-01-24T08:22:56.083Z,1.75
2023-01-24T08:25:28.447Z,1.79
2023-01-24T08:27:55.587Z,1.84
2023-01-24T08:30:22.930Z,1.86
2023-01-24T08:32:50.483Z,1.91
2023-01-24T08:35:17.564Z,1.91
2023-01-24T08:37:45.279Z,1.92
2023-01-24T08:40:12.729Z,1.87
2023-01-24T08:42:39.720Z,1.83
2023-01-24T08:45:07.400Z,1.81
2023-01-24T08:47:34.440Z,1.80
2023-01-24T08:50:01.388Z,1.78
2023-01-24T08:52:28.422Z,1.80
2023-01-24T08:54:55.398Z,1.84
2023-01-24T08:57:22.393Z,1.79
2023-01-24T08:59:49.358Z,1.81
2023-01-24T09:02:18.211Z,1.83
2023-01-24T09:04:45.282Z,1.86
2023-01-24T09:07:13.258Z,1.83
2023-01-24T09:09:40.712Z,1.85
2023-01-24T09:12:08.099Z,1.86
2023-01-24T09:14:35.191Z,1.84
2023-01-24T09:17:02.143Z,1.87
2023-01-24T09:19:29.207Z,1.90
2023-01-24T09:21:58.112Z,1.91
2023-01-24T09:24:25.969Z,1.87
2023-01-24T09:26:53.020Z,1.87
2023-01-24T09:29:20.168Z,1.85
2023-01-24T09:31:49.239Z,1.89
2023-01-24T09:34:16.919Z,1.87
2023-01-24T09:36:43.874Z,1.87
2023-01-24T09:39:10.820Z,1.86
2023-01-24T09:42:09.668Z,1.87
2023-01-24T09:45:13.920Z,1.84
2023-01-24T09:47:54.456Z,1.76
2023-01-24T09:50:24.570Z,1.73
2023-01-24T09:52:57.943Z,1.78
2023-01-24T09:55:33.677Z,1.74
2023-01-24T09:58:11.000Z,1.74
2023-01-24T10:00:42.060Z,1.74
2023-01-24T10:03:25.807Z,1.80
2023-01-24T10:05:55.727Z,1.80
2023-01-24T10:08:51.860Z,1.73
2023-01-24T10:11:50.049Z,1.80
2023-01-24T10:14:34.600Z,1.80
2023-01-24T10:17:16.981Z,1.79
2023-01-24T10:20:02.299Z,1.86
2023-01-24T10:23:07.138Z,1.91
2023-01-24T10:25:33.916Z,1.89
2023-01-24T10:28:05.581Z,1.92
2023-01-24T10:30:48.248Z,1.94
2023-01-24T10:33:18.843Z,1.98
2023-01-24T10:35:57.284Z,2.04
2023-01-24T10:38:26.176Z,2.03
2023-01-24T10:40:56.604Z,2.02
2023-01-24T10:43:26.309Z,2.07
2023-01-24T10:45:59.034Z,2.08
2023-01-24T10:48:35.136Z,2.13
2023-01-24T10:51:17.036Z,2.15
2023-01-24T10:53:44.493Z,2.16
2023-01-24T10:56:14.201Z,2.23
2023-01-24T10:59:05.649Z,2.25
2023-01-24T11:01:46.166Z,2.23
2023-01-24T11:04:23.283Z,2.21
2023-01-24T11:06:51.627Z,2.20
2023-01-24T11:09:44.480Z,2.17
2023-01-24T11:12:14.497Z,2.19
2023-01-24T11:14:41.643Z,2.18
2023-01-24T11:17:31.494Z,2.19
2023-01-24T11:20:01.779Z,2.21
2023-01-24T11:22:36.148Z,2.26
2023-01-24T11:25:05.500Z,2.32
2023-01-24T11:27:32.922Z,2.38
2023-01-24T11:30:22.837Z,2.37
2023-01-24T11:33:14.850Z,2.35
2023-01-24T11:35:53.028Z,2.36
2023-01-24T11:38:35.130Z,2.34
2023-01-24T11:41:05.149Z,2.35
2023-01-24T11:43:53.293Z,2.41
2023-01-24T11:46:33.641Z,2.42
2023-01-24T11:49:33.041Z,2.42
2023-01-24T11:52:22.165Z,2.37
2023-01-24T11:55:09.437Z,2.35
2023-01-24T11:57:53.094Z,2.38
2023-01-24T12:00:26.350Z,2.28
2023-01-24T12:03:11.533Z,2.26
2023-01-24T12:05:53.846Z,2.24
2023-01-24T12:08:42.631Z,2.27
2023-01-24T12:11:34.229Z,2.23
2023-01-24T12:14:17.208Z,2.18
2023-01-24T12:17:30.356Z,2.15
2023-01-24T12:20:30.769Z,2.19
2023-01-24T12:23:29.828Z,2.26
2023-01-24T12:26:18.820Z,2.28
2023-01-24T12:28:54.621Z,2.31
2023-01-24T12:31:47.665Z,2.30
2023-01-24T12:34:32.422Z,2.23
2023-01-24T12:37:06.471Z,2.18
2023-01-24T12:39:59.659Z,2.17
2023-01-24T12:43:02.503Z,2.20
2023-01-24T12:45:40.508Z,2.23
2023-01-24T12:48:19.504Z,2.27
2023-01-24T12:51:07.257Z,2.29
2023-01-24T12:53:39.814Z,2.25
2023-01-24T12:56:21.014Z,2.23
2023-01-24T12:58:51.641Z,2.22
2023-01-24T13:01:53.997Z,2.27
2023-01-24T13:04:59.245Z,2.32
2023-01-24T13:07:34.708Z,2.28
2023-01-24T13:10:43.280Z,2.31
2023-01-24T13:13:26.607Z,2.35
2023-01-24T13:16:25.543Z,2.31
2023-01-24T13:19:25.156Z,2.26
2023-01-24T13:22:30.926Z,2.24
2023-01-24T13:25:26.228Z,2.12
2023-01-24T13:28:22.903Z,2.10
2023-01-24T13:31:20.017Z,2.06
2023-01-24T13:33:52.140Z,2.10
2023-01-24T13:36:33.790Z,2.16
2023-01-24T13:39:03.201Z,2.20
2023-01-24T13:41:32.291Z,2.19
2023-01-24T13:44:08.841Z,2.27
2023-01-24T13:46:47.529Z,2.30
2023-01-24T13:49:31.560Z,2.35
2023-01-24T13:52:05.099Z,2.35
2023-01-24T13:54:41.999Z,2.30
2023-01-24T13:57:28.958Z,2.30
2023-01-24T14:00:22.856Z,2.34
2023-01-24T14:02:52.489Z,2.37
2023-01-24T14:05:44.053Z,2.38
2023-01-24T14:08:29.016Z,2.38
2023-01-24T14:11:10.657Z,2.39
2023-01-24T14:13:50.211Z,2.42
2023-01-24T14:16:29.179Z,2.38
2023-01-24T14:19:19.970Z,2.40
2023-01-24T14:21:59.996Z,2.45
2023-01-24T14:24:52.956Z,2.47
2023-01-24T14:27:26.011Z,2.40
2023-01-24T14:30:34.709Z,2.35
2023-01-24T14:33:22.056Z,2.31
2023-01-24T14:35:59.367Z,2.31
2023-01-24T14:38:28.927Z,2.32
2023-01-24T14:40:56.527Z,2.32
2023-01-24T14:43:40.548Z,2.31
2023-01-24T14:46:21.755Z,2.33
2023-01-24T14:48:48.787Z,2.35
2023-01-24T14:51:28.113Z,2.33
2023-01-24T14:53:56.655Z,2.32
2023-01-24T14:56:25.424Z,2.28
2023-01-24T14:58:59.100Z,2.22
2023-01-24T15:01:32.008Z,2.17
2023-01-24T15:03:59.682Z,2.12
2023-01-24T15:06:28.750Z,2.12
2023-01-24T15:09:04.101Z,2.10
2023-01-24T15:11:31.396Z,2.08
2023-01-24T15:14:04.884Z,2.06
2023-01-24T15:16:36.335Z,2.05
2023-01-24T15:19:17.923Z,2.08
2023-01-24T15:21:47.565Z,2.14
2023-01-24T15:24:24.799Z,2.18
2023-01-24T15:26:52.666Z,2.17
2023-01-24T15:29:41.152Z,2.17
2023-01-24T15:32:23.423Z,2.15
2023-01-24T15:34:50.492Z,2.12
2023-01-24T15:37:18.971Z,2.09
2023-01-24T15:39:46.157Z,2.06
2023-01-24T15:42:34.980Z,1.97
2023-01-24T15:45:03.544Z,1.91
2023-01-24T15:47:45.809Z,1.91
2023-01-24T15:50:42.108Z,1.87
2023-01-24T15:53:23.090Z,1.84
2023-01-24T15:55:51.675Z,1.87
2023-01-24T15:58:18.938Z,1.88
2023-01-24T16:00:57.588Z,1.89
2023-01-24T16:03:25.017Z,1.86
2023-01-24T16:05:52.278Z,1.87
2023-01-24T16:08:20.199Z,1.90
2023-01-24T16:10:48.576Z,1.86
2023-01-24T16:13:37.495Z,1.86
2023-01-24T16:16:11.842Z,1.86
2023-01-24T16:18:39.055Z,1.81
2023-01-24T16:21:06.517Z,1.79
2023-01-24T16:23:33.538Z,1.72
2023-01-24T16:26:00.525Z,1.65
2023-01-24T16:28:28.771Z,1.61
2023-01-24T16:31:02.561Z,1.61
2023-01-24T16:33:29.624Z,1.59
2023-01-24T16:35:56.676Z,1.57
